Time;durP1;ratioP1;P1;durP2;ratioP2;P2;SDS_P1;SDS_P2;PMS_P1;PMS_P2;Temp;Humidity;BMP_temperature;BMP_pressure;BME280_temperature;BME280_humidity;BME280_pressure;Samples;Min_cycle;Max_cycle;Signal;HPM_P1;HPM_P2
2023/03/03 00:00:57;;;;;;;;;61.00;46.33;;;;;6.94;51.61;101986.25;2016776;27;3622125;-76
2023/03/03 00:02:09;;;;;;;;;69.00;48.33;;;;;6.95;51.73;101989.75;2013430;27;3640868;-76
2023/03/03 00:03:24;;;;;;;;;60.00;47.00;;;;;6.93;51.61;101989.75;2012806;27;3616890;-75
2023/03/03 00:04:35;;;;;;;;;61.33;47.00;;;;;6.94;51.60;101990.63;2000555;28;3633566;-75
2023/03/03 00:05:48;;;;;;;;;58.33;46.67;;;;;6.94;51.46;101986.25;2014972;27;3596089;-76
2023/03/03 00:07:00;;;;;;;;;65.00;49.00;;;;;6.93;51.76;101984.50;1998024;28;3638758;-75
2023/03/03 00:08:12;;;;;;;;;60.67;47.67;;;;;6.93;51.38;101984.50;2016050;28;3608586;-75
2023/03/03 00:09:24;;;;;;;;;64.67;50.00;;;;;6.93;51.96;101989.75;2009995;27;3627728;-76
2023/03/03 00:10:36;;;;;;;;;65.67;48.33;;;;;6.92;51.53;101995.81;2015913;27;3632883;-75
2023/03/03 00:11:54;;;;;;;;;62.75;47.00;;;;;6.90;51.53;101984.50;2000006;27;3654407;-76
2023/03/03 00:13:15;;;;;;;;;62.00;49.67;;;;;6.90;51.54;101989.72;2022800;27;3615883;-75
2023/03/03 00:14:29;;;;;;;;;58.67;45.00;;;;;6.90;52.00;101986.22;2000675;27;3621468;-75
2023/03/03 00:15:41;;;;;;;;;68.00;49.67;;;;;6.89;51.53;101981.88;1999457;28;3642930;-75
2023/03/03 00:16:54;;;;;;;;;60.67;46.67;;;;;6.89;52.18;101987.13;2014041;28;3637741;-75
2023/03/03 00:18:21;;;;;;;;;60.00;47.33;;;;;6.89;52.02;101993.19;1999888;27;3614873;-76
2023/03/03 00:19:39;;;;;;;;;61.67;47.33;;;;;6.90;51.86;101989.72;1991932;28;3632549;-76
2023/03/03 00:20:59;;;;;;;;;60.33;48.00;;;;;6.90;51.78;101984.50;1991386;28;3615882;-76
2023/03/03 00:22:20;;;;;;;;;53.67;44.67;;;;;6.92;51.49;101992.34;1998611;28;3597102;-75
2023/03/03 00:23:41;;;;;;;;;61.00;48.00;;;;;6.90;51.64;101989.72;2023729;28;3616889;-76
2023/03/03 00:24:53;;;;;;;;;65.33;48.33;;;;;6.90;52.04;101994.06;1999203;27;3638785;-76
2023/03/03 00:26:35;;;;;;;;;55.33;42.33;;;;;6.88;51.92;101998.44;1999150;28;3623142;-76
2023/03/03 00:27:46;;;;;;;;;64.00;47.00;;;;;6.87;51.43;101997.56;1990521;28;3622152;-75
2023/03/03 00:29:00;;;;;;;;;57.00;46.00;;;;;6.87;51.74;102000.16;2019810;28;3617941;-75
2023/03/03 00:30:26;;;;;;;;;62.33;46.67;;;;;6.86;51.81;101987.97;1999195;28;3620462;-76
2023/03/03 00:31:37;;;;;;;;;61.33;42.00;;;;;6.86;51.66;101991.44;1999873;28;3632549;-76
2023/03/03 00:32:54;;;;;;;;;65.60;45.60;;;;;6.86;51.50;101988.81;2002951;27;2889218;-75
2023/03/03 00:34:18;;;;;;;;;66.67;47.00;;;;;6.88;51.86;101985.38;2023562;28;3633579;-76
2023/03/03 00:35:37;;;;;;;;;57.33;47.67;;;;;6.88;51.81;101993.19;1999018;27;3625304;-75
2023/03/03 00:36:54;;;;;;;;;57.33;44.00;;;;;6.88;51.74;101996.69;1992241;28;3626310;-76
2023/03/03 00:38:13;;;;;;;;;56.67;43.67;;;;;6.89;51.67;101997.56;1991533;28;3630510;-76
2023/03/03 00:39:27;;;;;;;;;56.67;42.00;;;;;6.88;51.74;101995.81;2001657;27;3613845;-75
2023/03/03 00:40:40;;;;;;;;;60.33;46.00;;;;;6.88;51.44;101998.44;2005436;27;3625750;-76
2023/03/03 00:41:52;;;;;;;;;57.00;45.00;;;;;6.86;51.82;101990.59;2000156;27;3623157;-76
2023/03/03 00:43:24;;;;;;;;;59.67;47.33;;;;;6.85;51.64;101996.69;1999682;27;3627320;-75
2023/03/03 00:44:47;;;;;;;;;62.50;48.50;;;;;6.83;51.78;101991.47;1998661;28;2885716;-75
2023/03/03 00:45:59;;;;;;;;;60.33;47.00;;;;;6.80;51.96;101994.06;1997565;28;3629418;-75
2023/03/03 00:47:15;;;;;;;;;65.00;49.00;;;;;6.79;51.89;101992.28;2015785;28;3635657;-75
2023/03/03 00:48:28;;;;;;;;;62.67;45.67;;;;;6.78;52.03;101989.69;1996862;27;3650230;-75
2023/03/03 00:49:40;;;;;;;;;64.33;47.67;;;;;6.77;51.66;101982.69;1999590;28;3621067;-75
2023/03/03 00:50:57;;;;;;;;;63.00;48.00;;;;;6.74;51.76;101987.06;2000117;28;3643999;-76
2023/03/03 00:52:14;;;;;;;;;62.67;47.33;;;;;6.74;51.75;101986.22;1998271;28;3635684;-75
2023/03/03 00:53:28;;;;;;;;;59.33;44.00;;;;;6.77;51.97;101993.16;1999896;28;3633586;-76
2023/03/03 00:54:39;;;;;;;;;58.33;44.00;;;;;6.77;52.00;101993.16;2001100;27;3612734;-76
2023/03/03 00:55:52;;;;;;;;;55.00;44.20;;;;;6.78;51.62;101990.56;2003590;28;2862763;-75
2023/03/03 00:57:03;;;;;;;;;60.00;44.00;;;;;6.78;51.72;101992.31;2023243;28;3617896;-76
2023/03/03 00:58:14;;;;;;;;;62.80;48.00;;;;;6.78;52.00;101987.06;2005502;28;2888913;-75
2023/03/03 00:59:26;;;;;;;;;60.00;46.00;;;;;6.77;51.93;101995.78;2042117;27;3615852;-75
2023/03/03 01:00:38;;;;;;;;;60.20;45.00;;;;;6.78;52.06;101989.69;2005605;28;2877300;-76
2023/03/03 01:01:49;;;;;;;;;62.33;47.00;;;;;6.77;51.83;101987.94;2023649;27;3625253;-75
2023/03/03 01:03:06;;;;;;;;;61.25;45.75;;;;;6.75;51.83;101994.03;2018579;27;3629380;-76
2023/03/03 01:04:18;;;;;;;;;59.33;45.67;;;;;6.77;51.62;101993.16;2000303;27;3623157;-76
2023/03/03 01:05:29;;;;;;;;;61.00;46.80;;;;;6.75;51.76;101986.19;2002824;27;2883669;-75
2023/03/03 01:06:41;;;;;;;;;49.00;42.00;;;;;6.75;51.70;101995.78;2034832;28;3590813;-76
2023/03/03 01:07:51;;;;;;;;;63.20;47.00;;;;;6.75;51.87;101993.16;2027610;28;2883631;-75
2023/03/03 01:09:03;;;;;;;;;64.40;46.00;;;;;6.74;52.00;101994.91;2025669;28;2875264;-76
2023/03/03 01:10:15;;;;;;;;;54.33;44.67;;;;;6.74;51.90;101996.66;2041345;28;3596032;-75
2023/03/03 01:11:28;;;;;;;;;61.00;45.33;;;;;6.72;51.53;101993.16;2032575;28;3637058;-75
2023/03/03 01:12:39;;;;;;;;;63.33;46.67;;;;;6.70;51.81;101995.75;1999576;28;3635672;-76
2023/03/03 01:13:52;;;;;;;;;57.33;45.67;;;;;6.69;51.99;101996.63;2010834;28;3616917;-76
2023/03/03 01:15:06;;;;;;;;;58.67;47.00;;;;;6.67;51.62;102000.97;1998867;28;3605443;-76
2023/03/03 01:16:18;;;;;;;;;61.00;48.00;;;;;6.67;51.88;101995.75;1999650;28;3605514;-75
2023/03/03 01:17:30;;;;;;;;;62.67;49.33;;;;;6.66;52.15;101996.63;1999746;28;3617977;-75
2023/03/03 01:18:41;;;;;;;;;58.67;45.67;;;;;6.66;51.94;102000.97;2010115;27;3633559;-75
2023/03/03 01:19:53;;;;;;;;;63.00;48.33;;;;;6.66;52.04;101999.25;2011550;28;3612734;-76
2023/03/03 01:21:06;;;;;;;;;59.67;47.33;;;;;6.67;51.94;102002.72;2014381;28;3631522;-75
2023/03/03 01:22:17;;;;;;;;;62.33;43.67;;;;;6.65;52.35;102000.09;1995117;28;3637781;-75
2023/03/03 01:23:29;;;;;;;;;54.60;43.80;;;;;6.64;52.08;101998.38;2004536;27;2871077;-75
2023/03/03 01:24:40;;;;;;;;;68.00;49.33;;;;;6.65;51.99;102005.31;2033373;27;3648109;-75
2023/03/03 01:25:54;;;;;;;;;61.50;48.38;;;;;6.63;52.30;102001.84;2018647;28;3638810;-76
2023/03/03 01:27:06;;;;;;;;;62.33;45.67;;;;;6.62;52.03;102007.91;2012942;28;3628445;-75
2023/03/03 01:28:17;;;;;;;;;62.00;47.80;;;;;6.60;51.93;102002.69;2003916;28;2876804;-76
2023/03/03 01:29:28;;;;;;;;;61.40;45.80;;;;;6.61;51.98;102007.06;2026094;28;2883721;-75
2023/03/03 01:30:41;;;;;;;;;58.29;44.86;;;;;6.59;52.21;102005.31;2036014;28;3625198;-75
2023/03/03 01:31:52;;;;;;;;;61.80;47.60;;;;;6.58;51.53;102004.44;2003624;28;2876348;-75
2023/03/03 01:33:04;;;;;;;;;60.00;47.67;;;;;6.58;51.89;102011.38;2032808;28;3623127;-75
2023/03/03 01:34:16;;;;;;;;;64.67;48.67;;;;;6.56;52.18;102006.16;2013109;28;3638794;-75
2023/03/03 01:35:28;;;;;;;;;60.33;46.67;;;;;6.56;51.88;102010.50;2015289;28;3617962;-75
2023/03/03 01:36:40;;;;;;;;;61.00;48.00;;;;;6.55;52.20;102004.41;2006043;28;3629430;-75
2023/03/03 01:37:52;;;;;;;;;55.67;43.33;;;;;6.56;52.27;102010.50;2017882;27;3590863;-76
2023/03/03 01:39:03;;;;;;;;;60.80;45.00;;;;;6.57;51.96;102009.66;2027979;27;2885777;-75
2023/03/03 01:40:25;;;;;;;;;61.33;46.67;;;;;6.57;52.00;102005.28;2038854;27;3634569;-76
2023/03/03 01:41:37;;;;;;;;;64.00;46.00;;;;;6.57;52.23;102007.03;2001567;28;3648168;-76
2023/03/03 01:42:49;;;;;;;;;64.67;47.67;;;;;6.57;52.36;102007.91;1999716;28;3643989;-75
2023/03/03 01:44:00;;;;;;;;;58.00;46.33;;;;;6.57;51.77;102007.03;2009187;27;3614119;-75
2023/03/03 01:45:14;;;;;;;;;60.33;46.33;;;;;6.56;52.09;102005.28;2012653;27;3628352;-75
2023/03/03 01:46:35;;;;;;;;;61.67;48.00;;;;;6.54;52.31;102000.06;2001417;28;3626328;-75
2023/03/03 01:48:23;;;;;;;;;59.33;46.33;;;;;6.54;52.40;102002.69;2001304;27;3619003;-75
2023/03/03 01:49:50;;;;;;;;;60.33;44.33;;;;;6.51;52.51;102003.53;2001459;28;3627308;-75
2023/03/03 01:51:21;;;;;;;;;57.67;44.33;;;;;6.50;51.82;101996.56;2000947;27;3610691;-76
2023/03/03 01:52:38;;;;;;;;;62.00;48.67;;;;;6.50;52.41;101999.16;1995788;27;3630923;-76
2023/03/03 01:54:00;;;;;;;;;65.00;46.67;;;;;6.49;52.07;101999.16;2001416;28;3645094;-75
2023/03/03 01:55:17;;;;;;;;;55.33;45.33;;;;;6.49;52.45;101987.00;2001284;27;3586693;-75
2023/03/03 01:56:29;;;;;;;;;55.00;43.67;;;;;6.48;52.24;101987.84;2023705;28;3609641;-76
2023/03/03 01:57:47;;;;;;;;;60.33;46.00;;;;;6.47;52.36;101991.31;1999188;28;3622173;-75
2023/03/03 01:59:04;;;;;;;;;64.33;48.00;;;;;6.46;52.46;101989.56;1991893;28;3637051;-75
2023/03/03 02:00:17;;;;;;;;;63.33;48.00;;;;;6.47;52.42;101991.31;1999875;28;3630446;-75
2023/03/03 02:01:31;;;;;;;;;58.00;47.67;;;;;6.46;52.23;101986.97;2001201;27;3624212;-75
2023/03/03 02:02:44;;;;;;;;;58.00;46.00;;;;;6.45;52.58;101985.22;2000441;27;3617929;-76
2023/03/03 02:03:56;;;;;;;;;57.00;44.67;;;;;6.45;52.15;101986.94;2001520;27;3590883;-75
2023/03/03 02:05:08;;;;;;;;;55.67;46.00;;;;;6.46;52.33;101983.47;2000994;28;3602318;-76
2023/03/03 02:06:29;;;;;;;;;57.67;45.33;;;;;6.44;52.36;101982.59;1997313;28;3621082;-75
2023/03/03 02:07:41;;;;;;;;;56.00;43.00;;;;;6.43;52.52;101986.06;1993320;28;3606465;-75
2023/03/03 02:09:09;;;;;;;;;61.67;47.00;;;;;6.42;52.44;101987.78;2034353;28;3631483;-75
2023/03/03 02:10:21;;;;;;;;;57.33;45.33;;;;;6.39;52.54;101987.81;2001238;28;3615866;-75
2023/03/03 02:11:36;;;;;;;;;57.00;45.33;;;;;6.38;52.55;101988.66;1999717;27;3599190;-75
2023/03/03 02:12:53;;;;;;;;;60.33;42.33;;;;;6.38;52.46;101991.28;1998293;27;3615867;-76
2023/03/03 02:14:04;;;;;;;;;58.33;43.33;;;;;6.37;52.61;101993.00;1999424;28;3624172;-75
2023/03/03 02:15:23;;;;;;;;;58.67;45.67;;;;;6.36;52.77;101993.88;2008190;28;3610646;-76
2023/03/03 02:16:34;;;;;;;;;58.33;46.33;;;;;6.35;52.63;101984.28;2000042;28;3617930;-76
2023/03/03 02:17:59;;;;;;;;;53.67;39.00;;;;;6.35;52.75;101986.91;2012906;28;3606813;-76
2023/03/03 02:19:21;;;;;;;;;61.67;48.33;;;;;6.35;52.73;101992.13;1998899;27;3621107;-75
2023/03/03 02:21:01;;;;;;;;;58.67;45.67;;;;;6.32;52.62;101983.41;1999159;28;3614809;-75
2023/03/03 02:22:17;;;;;;;;;60.00;47.00;;;;;6.30;52.41;101992.09;1999713;28;3605436;-75
2023/03/03 02:24:00;;;;;;;;;54.00;44.00;;;;;6.29;52.47;101982.53;1999778;27;3586697;-75
2023/03/03 02:25:23;;;;;;;;;60.67;47.33;;;;;6.28;52.43;101983.38;2007086;28;3608568;-76
2023/03/03 02:26:39;;;;;;;;;57.67;45.67;;;;;6.27;52.49;101981.63;1985092;28;3613753;-75
2023/03/03 02:27:51;;;;;;;;;58.00;44.67;;;;;6.27;52.69;101979.03;2000478;27;3620057;-75
2023/03/03 02:29:03;;;;;;;;;62.00;43.00;;;;;6.27;52.81;101983.41;1992776;28;3635657;-75
2023/03/03 02:30:20;;;;;;;;;58.33;45.67;;;;;6.25;52.53;101975.53;2009057;28;3616923;-75
2023/03/03 02:31:32;;;;;;;;;55.00;44.33;;;;;6.26;52.89;101979.91;1999989;28;3606476;-75
2023/03/03 02:32:45;;;;;;;;;65.25;47.00;;;;;6.23;53.06;101977.28;2000131;27;3649176;-75
2023/03/03 02:33:57;;;;;;;;;61.00;42.33;;;;;6.23;52.84;101976.38;2023043;28;3622101;-75
2023/03/03 02:35:32;;;;;;;;;57.00;45.00;;;;;6.21;52.94;101972.91;2000117;28;3613785;-75
2023/03/03 02:36:43;;;;;;;;;58.00;44.00;;;;;6.19;52.99;101970.28;2007103;27;3606472;-75
2023/03/03 02:38:14;;;;;;;;;62.60;46.00;;;;;6.21;52.77;101978.13;2010637;27;2879507;-75
2023/03/03 02:39:26;;;;;;;;;61.00;47.00;;;;;6.19;53.19;101975.50;2019793;28;3633575;-76
2023/03/03 02:40:49;;;;;;;;;58.67;43.00;;;;;6.18;52.83;101973.75;2000874;28;3641919;-75
2023/03/03 02:42:25;;;;;;;;;59.67;47.33;;;;;6.17;52.92;101972.03;2000954;27;3628405;-75
2023/03/03 02:43:52;;;;;;;;;61.00;47.33;;;;;6.15;53.13;101972.00;2000066;28;3629408;-75
2023/03/03 02:45:03;;;;;;;;;61.00;47.33;;;;;6.13;52.95;101975.47;1995539;28;3614149;-75
2023/03/03 02:46:15;;;;;;;;;54.33;45.00;;;;;6.10;53.35;101975.47;2000270;27;3603363;-75
2023/03/03 02:47:27;;;;;;;;;57.00;44.67;;;;;6.06;53.37;101978.03;2014689;27;3612751;-75
2023/03/03 02:48:39;;;;;;;;;52.33;43.00;;;;;6.05;53.33;101980.63;2011321;28;3612757;-76
2023/03/03 02:49:51;;;;;;;;;59.33;46.00;;;;;6.04;53.31;101979.75;2013446;27;3623167;-75
2023/03/03 02:51:03;;;;;;;;;59.00;43.67;;;;;6.01;53.51;101982.34;2014792;27;3637858;-75
2023/03/03 02:52:17;;;;;;;;;59.67;45.67;;;;;6.01;53.27;101984.94;2010755;27;3628354;-75
2023/03/03 02:53:29;;;;;;;;;61.67;49.00;;;;;6.01;53.50;101976.22;1999374;27;3631503;-75
2023/03/03 02:54:41;;;;;;;;;60.33;47.33;;;;;6.00;53.51;101983.19;2017080;28;3626296;-75
2023/03/03 02:55:53;;;;;;;;;58.33;46.67;;;;;6.00;53.75;101983.19;2015969;27;3607534;-76
2023/03/03 02:57:06;;;;;;;;;60.67;46.33;;;;;6.01;53.75;101984.06;2015733;28;3618979;-75
2023/03/03 02:58:17;;;;;;;;;60.33;47.67;;;;;6.00;53.12;101984.94;1994154;28;3629419;-75
2023/03/03 02:59:29;;;;;;;;;61.33;47.33;;;;;5.99;53.67;101989.28;2001158;28;3618996;-75
2023/03/03 03:00:41;;;;;;;;;54.33;37.67;;;;;5.96;53.46;101979.69;1996214;28;3615887;-75
2023/03/03 03:01:53;;;;;;;;;60.67;47.33;;;;;5.96;53.92;101982.31;2016477;27;3629407;-75
2023/03/03 03:03:05;;;;;;;;;59.00;46.00;;;;;5.94;53.76;101985.78;2007639;27;3615858;-75
2023/03/03 03:04:20;;;;;;;;;61.33;46.67;;;;;5.93;53.87;101986.63;2013206;27;3628358;-75
2023/03/03 03:05:32;;;;;;;;;60.00;46.67;;;;;5.92;53.63;101982.28;2000456;27;3601281;-75
2023/03/03 03:06:45;;;;;;;;;57.67;48.00;;;;;5.92;53.92;101983.16;2015333;27;3602321;-75
2023/03/03 03:07:56;;;;;;;;;62.00;47.00;;;;;5.92;53.69;101977.06;1999450;28;3636685;-76
2023/03/03 03:09:09;;;;;;;;;57.00;43.33;;;;;5.90;54.25;101974.41;2016622;27;3618973;-75
2023/03/03 03:10:21;;;;;;;;;62.33;47.33;;;;;5.87;54.45;101976.16;1992118;28;3616934;-75
2023/03/03 03:11:34;;;;;;;;;42.67;38.33;;;;;5.85;54.00;101977.00;2016717;27;3602687;-75
2023/03/03 03:12:45;;;;;;;;;59.00;46.67;;;;;5.83;54.66;101976.13;1998786;28;3615179;-75
2023/03/03 03:13:56;;;;;;;;;60.40;47.40;;;;;5.82;54.50;101979.63;2002405;28;2872182;-75
2023/03/03 03:15:09;;;;;;;;;63.67;47.33;;;;;5.81;54.19;101977.84;2037516;28;3646047;-75
2023/03/03 03:16:20;;;;;;;;;63.00;48.00;;;;;5.81;54.30;101975.25;2004407;28;3618980;-75
2023/03/03 03:17:32;;;;;;;;;57.33;46.00;;;;;5.80;54.06;101973.47;2015609;27;3610666;-75
2023/03/03 03:18:46;;;;;;;;;63.50;47.63;;;;;5.81;54.23;101980.47;2015658;28;3637726;-75
2023/03/03 03:19:58;;;;;;;;;59.67;47.33;;;;;5.82;54.00;101981.34;2014776;28;3610727;-75
2023/03/03 03:21:12;;;;;;;;;61.60;46.00;;;;;5.82;54.38;101983.97;2000304;28;2878385;-75
2023/03/03 03:22:23;;;;;;;;;55.67;45.33;;;;;5.82;54.64;101982.22;2016017;28;3611732;-76
2023/03/03 03:23:35;;;;;;;;;62.00;47.33;;;;;5.81;54.41;101985.69;2017146;27;3633553;-75
2023/03/03 03:24:47;;;;;;;;;61.67;45.33;;;;;5.80;54.36;101978.69;2003465;27;3622116;-75
2023/03/03 03:26:00;;;;;;;;;47.29;36.43;;;;;5.81;54.41;101990.03;2017403;27;3611700;-75
2023/03/03 03:27:12;;;;;;;;;61.67;48.33;;;;;5.80;54.34;101986.53;2014959;27;3634604;-75
2023/03/03 03:28:24;;;;;;;;;62.33;50.67;;;;;5.81;54.54;101990.91;2006106;28;3607530;-75
2023/03/03 03:29:36;;;;;;;;;62.67;47.00;;;;;5.79;54.65;101986.53;2012641;28;3643987;-76
2023/03/03 03:30:50;;;;;;;;;59.20;47.40;;;;;5.77;54.54;101978.72;2003495;28;2881896;-75
2023/03/03 03:32:02;;;;;;;;;64.00;50.33;;;;;5.79;54.72;101986.53;2023834;27;3613804;-75
2023/03/03 03:33:14;;;;;;;;;67.00;49.33;;;;;5.79;54.12;101983.91;2014571;27;3649534;-75
2023/03/03 03:34:25;;;;;;;;;64.40;45.60;;;;;5.80;54.31;101986.53;2003614;27;2874179;-75
2023/03/03 03:35:37;;;;;;;;;60.00;44.67;;;;;5.80;54.86;101983.91;2041074;28;3628315;-75
2023/03/03 03:36:49;;;;;;;;;68.00;51.00;;;;;5.79;54.74;101989.13;2003194;28;3636752;-75
2023/03/03 03:38:01;;;;;;;;;58.00;42.33;;;;;5.77;54.65;101983.91;2014627;28;3628453;-75
2023/03/03 03:39:13;;;;;;;;;62.00;45.67;;;;;5.77;54.48;101983.91;1992496;28;3629397;-76
2023/03/03 03:40:25;;;;;;;;;67.00;51.00;;;;;5.77;54.39;101988.25;2009557;28;3618986;-75
2023/03/03 03:41:37;;;;;;;;;58.33;46.00;;;;;5.76;54.72;101989.09;1997758;28;3604396;-75
2023/03/03 03:42:49;;;;;;;;;62.33;48.33;;;;;5.73;54.52;101984.75;2012912;28;3619006;-75
2023/03/03 03:44:01;;;;;;;;;59.67;46.67;;;;;5.74;54.60;101990.00;2007483;28;3616953;-75
2023/03/03 03:45:14;;;;;;;;;62.33;44.33;;;;;5.73;54.95;101992.56;2009612;27;3620018;-75
2023/03/03 03:46:25;;;;;;;;;61.67;48.67;;;;;5.72;54.82;101988.22;1994201;28;3625253;-75
2023/03/03 03:47:38;;;;;;;;;63.29;48.43;;;;;5.71;55.31;101986.47;2017093;27;3620054;-75
2023/03/03 03:48:51;;;;;;;;;63.75;47.50;;;;;5.70;55.36;101990.84;2014968;27;3651311;-75
2023/03/03 03:50:03;;;;;;;;;64.33;48.00;;;;;5.69;55.08;101991.69;2019014;28;3651264;-75
2023/03/03 03:51:14;;;;;;;;;62.33;47.67;;;;;5.68;55.20;101994.28;2007311;28;3632529;-75
2023/03/03 03:52:26;;;;;;;;;70.67;50.67;;;;;5.67;55.32;101995.16;2016406;28;3629408;-75
2023/03/03 03:53:39;;;;;;;;;65.71;49.86;;;;;5.68;55.15;101999.50;2015726;28;3630443;-76
2023/03/03 03:54:51;;;;;;;;;63.33;50.00;;;;;5.68;55.01;102000.34;2010717;28;3620041;-75
2023/03/03 03:56:05;;;;;;;;;67.25;48.25;;;;;5.69;55.49;101996.03;2017517;27;3645008;-75
2023/03/03 03:57:17;;;;;;;;;58.33;44.33;;;;;5.68;55.56;102000.34;2003871;27;3612082;-75
2023/03/03 03:58:31;;;;;;;;;65.63;47.88;;;;;5.68;55.21;102007.34;2016965;28;3648129;-75
2023/03/03 03:59:42;;;;;;;;;61.60;48.80;;;;;5.67;55.14;101997.75;1994004;28;2879399;-75
2023/03/03 04:00:53;;;;;;;;;60.60;47.40;;;;;5.65;55.00;102000.34;2018032;28;2879446;-75
2023/03/03 04:02:05;;;;;;;;;59.00;46.67;;;;;5.66;55.30;102001.22;2033041;28;3628319;-75
2023/03/03 04:03:17;;;;;;;;;61.67;48.33;;;;;5.62;55.39;102003.81;2014281;28;3627325;-75
2023/03/03 04:04:29;;;;;;;;;64.00;46.33;;;;;5.61;55.27;102004.66;2016231;27;3648165;-75
2023/03/03 04:05:42;;;;;;;;;63.67;48.67;;;;;5.58;55.61;102003.78;2011426;28;3624226;-75
2023/03/03 04:06:53;;;;;;;;;65.33;48.67;;;;;5.56;55.74;102002.88;2000593;27;3648193;-75
2023/03/03 04:08:05;;;;;;;;;63.00;49.00;;;;;5.53;55.50;102006.34;2016344;27;3629392;-75
2023/03/03 04:09:17;;;;;;;;;60.00;48.00;;;;;5.52;55.99;102007.19;2012211;28;3620379;-75
2023/03/03 04:10:29;;;;;;;;;61.00;47.33;;;;;5.49;56.02;102007.16;2012383;28;3609618;-75
2023/03/03 04:11:40;;;;;;;;;64.60;49.60;;;;;5.47;55.81;102011.50;2003935;27;2888266;-75
2023/03/03 04:12:52;;;;;;;;;64.33;48.00;;;;;5.44;56.31;102012.34;2038671;28;3643994;-75
2023/03/03 04:14:03;;;;;;;;;65.20;49.20;;;;;5.42;55.96;102013.19;1995923;28;2892008;-75
2023/03/03 04:15:15;;;;;;;;;63.67;46.67;;;;;5.39;56.25;102014.91;2031226;27;3631444;-75
2023/03/03 04:16:28;;;;;;;;;60.71;46.29;;;;;5.38;56.06;102013.16;2011991;28;3622133;-75
2023/03/03 04:17:41;;;;;;;;;62.33;48.67;;;;;5.39;56.11;102011.41;2016525;27;3633575;-75
2023/03/03 04:18:52;;;;;;;;;62.00;47.67;;;;;5.38;56.37;102007.94;2000745;27;3631507;-75
2023/03/03 04:20:06;;;;;;;;;66.33;50.33;;;;;5.38;56.54;102010.53;2015071;27;3633561;-75
2023/03/03 04:21:17;;;;;;;;;67.00;49.00;;;;;5.34;56.38;102008.78;2000030;28;3640843;-75
2023/03/03 04:22:32;;;;;;;;;62.60;48.00;;;;;5.33;56.65;102008.78;2003400;27;2877323;-75
2023/03/03 04:23:44;;;;;;;;;63.67;47.00;;;;;5.32;56.64;101999.19;2022823;28;3642941;-75
2023/03/03 04:24:56;;;;;;;;;61.00;49.00;;;;;5.31;56.88;102011.34;2014112;28;3609609;-75
2023/03/03 04:26:08;;;;;;;;;63.00;49.00;;;;;5.30;56.63;102007.00;2007036;28;3609600;-75
2023/03/03 04:27:20;;;;;;;;;63.67;49.33;;;;;5.29;56.65;102013.06;2002295;28;3621134;-75
2023/03/03 04:28:31;;;;;;;;;71.60;51.60;;;;;5.29;56.58;102016.56;1995864;28;2887810;-75
2023/03/03 04:29:42;;;;;;;;;65.40;50.20;;;;;5.30;56.67;102014.81;2018027;28;2876314;-75
2023/03/03 04:30:54;;;;;;;;;65.00;50.67;;;;;5.31;56.40;102013.09;2037235;28;3631460;-75
2023/03/03 04:32:06;;;;;;;;;62.00;46.00;;;;;5.31;56.87;102015.72;2017658;28;3627312;-75
2023/03/03 04:33:18;;;;;;;;;63.67;50.00;;;;;5.30;56.75;102020.03;2008042;27;3626264;-75
2023/03/03 04:34:30;;;;;;;;;62.00;48.00;;;;;5.31;56.77;102024.38;2014975;28;3636706;-75
2023/03/03 04:35:42;;;;;;;;;63.67;50.33;;;;;5.31;57.43;102020.91;2009389;28;3623162;-75
2023/03/03 04:36:54;;;;;;;;;62.33;47.00;;;;;5.31;57.29;102024.38;2012332;27;3632521;-75
2023/03/03 04:38:06;;;;;;;;;64.33;51.00;;;;;5.30;56.84;102025.25;2001016;28;3616899;-75
2023/03/03 04:39:18;;;;;;;;;62.00;49.33;;;;;5.31;56.81;102033.97;2012609;28;3622117;-75
2023/03/03 04:40:30;;;;;;;;;67.33;51.67;;;;;5.31;56.99;102031.34;2015321;28;3612748;-75
2023/03/03 04:41:42;;;;;;;;;62.00;46.67;;;;;5.29;56.92;102024.38;2001747;28;3623177;-75
2023/03/03 04:42:53;;;;;;;;;63.40;49.80;;;;;5.29;57.81;102028.69;1997923;28;2877316;-75
2023/03/03 04:44:05;;;;;;;;;60.00;48.33;;;;;5.27;57.20;102026.09;2042443;27;3620014;-75
2023/03/03 04:45:17;;;;;;;;;63.67;47.00;;;;;5.27;57.28;102028.69;2007000;28;3639820;-75
2023/03/03 04:46:29;;;;;;;;;63.00;49.00;;;;;5.24;57.58;102026.06;2009238;28;3615920;-75
2023/03/03 04:47:41;;;;;;;;;67.67;49.67;;;;;5.23;57.77;102034.75;2012637;28;3631507;-75
2023/03/03 04:48:54;;;;;;;;;55.67;46.00;;;;;5.22;57.32;102032.09;2013751;27;3605837;-75
2023/03/03 04:50:06;;;;;;;;;67.00;50.00;;;;;5.22;57.44;102032.09;1999785;27;3628351;-75
2023/03/03 04:51:18;;;;;;;;;65.33;48.00;;;;;5.21;57.49;102031.22;2008656;27;3648142;-75
2023/03/03 04:52:30;;;;;;;;;61.00;50.00;;;;;5.18;57.52;102028.63;2022470;27;3620053;-75
2023/03/03 04:53:42;;;;;;;;;67.33;51.67;;;;;5.16;57.59;102031.19;2011172;28;3609613;-75
2023/03/03 04:54:54;;;;;;;;;66.67;51.67;;;;;5.16;57.88;102023.38;2014020;28;3623170;-75
2023/03/03 04:56:06;;;;;;;;;65.67;50.67;;;;;5.15;57.32;102032.06;2008500;28;3624184;-75
2023/03/03 04:57:18;;;;;;;;;59.00;46.00;;;;;5.14;58.42;102024.19;1997450;28;3613779;-75
2023/03/03 04:58:30;;;;;;;;;68.00;52.00;;;;;5.13;58.24;102032.91;2015283;28;3635665;-75
2023/03/03 04:59:42;;;;;;;;;63.67;50.33;;;;;5.11;57.76;102030.25;2008972;28;3603424;-75
2023/03/03 05:00:55;;;;;;;;;59.00;42.33;;;;;5.07;59.57;102029.38;2013759;27;3630457;-75
2023/03/03 05:02:07;;;;;;;;;65.00;51.00;;;;;5.04;59.45;102028.44;1997946;27;3612727;-75
2023/03/03 05:03:19;;;;;;;;;66.67;49.00;;;;;5.01;59.14;102020.59;2009549;28;3626830;-75
2023/03/03 05:04:32;;;;;;;;;65.60;49.40;;;;;4.99;58.88;102025.78;2019265;28;3620000;-75
2023/03/03 05:05:45;;;;;;;;;64.67;48.00;;;;;4.99;59.07;102019.72;1995055;28;3615900;-75
2023/03/03 05:06:57;;;;;;;;;68.67;51.67;;;;;4.97;58.14;102024.00;1998762;28;3622168;-75
2023/03/03 05:08:09;;;;;;;;;62.67;49.00;;;;;4.95;58.62;102017.06;2010162;28;3605439;-75
2023/03/03 05:09:21;;;;;;;;;69.40;50.80;;;;;4.94;58.72;102017.03;2045539;28;3636665;-75
2023/03/03 05:10:32;;;;;;;;;71.60;52.20;;;;;4.94;58.46;102017.91;2005334;28;2879540;-75
2023/03/03 05:11:43;;;;;;;;;69.20;51.40;;;;;4.94;58.38;102015.31;2026524;28;2889971;-75
2023/03/03 05:12:55;;;;;;;;;64.67;48.33;;;;;4.95;58.36;102014.47;2041288;28;3633531;-75
2023/03/03 05:14:07;;;;;;;;;62.40;48.60;;;;;4.95;58.70;102019.69;2000917;28;2887255;-76
2023/03/03 05:15:18;;;;;;;;;66.67;48.33;;;;;4.93;58.57;102021.41;2019214;28;3646084;-76
2023/03/03 05:16:31;;;;;;;;;61.43;47.14;;;;;4.93;58.70;102024.00;2013039;28;3627348;-76
2023/03/03 05:17:44;;;;;;;;;64.86;51.14;;;;;4.93;58.63;102030.94;2016512;27;3620074;-76
2023/03/03 05:18:56;;;;;;;;;65.00;47.67;;;;;4.92;59.32;102017.03;2015041;27;3638755;-75
2023/03/03 05:20:09;;;;;;;;;69.80;53.00;;;;;4.93;58.53;102025.72;2003926;28;2878420;-76
2023/03/03 05:21:21;;;;;;;;;63.67;51.00;;;;;4.91;59.44;102023.13;2023658;28;3629405;-76
2023/03/03 05:22:33;;;;;;;;;68.33;51.00;;;;;4.89;58.56;102027.41;2015004;28;3638793;-76
2023/03/03 05:23:45;;;;;;;;;65.33;52.00;;;;;4.89;59.08;102027.41;2004592;28;3620060;-76
2023/03/03 05:24:57;;;;;;;;;65.60;51.00;;;;;4.89;58.69;102023.97;2019362;28;3626358;-76
2023/03/03 05:26:10;;;;;;;;;65.38;48.50;;;;;4.88;59.06;102027.41;2013809;28;3648589;-76
2023/03/03 05:27:21;;;;;;;;;69.60;52.00;;;;;4.87;58.78;102029.13;2005679;27;2888153;-76
2023/03/03 05:28:33;;;;;;;;;71.67;53.33;;;;;4.86;59.04;102030.00;2043265;27;3635702;-76
2023/03/03 05:29:47;;;;;;;;;66.13;52.00;;;;;4.86;59.13;102035.22;2014928;28;3626244;-76
2023/03/03 05:30:59;;;;;;;;;64.67;50.67;;;;;4.85;59.15;102028.25;2019820;28;3628366;-76
2023/03/03 05:32:10;;;;;;;;;65.40;50.20;;;;;4.84;59.17;102029.09;2000438;28;2877435;-75
2023/03/03 05:33:21;;;;;;;;;64.60;49.00;;;;;4.84;58.76;102029.09;2020842;28;2879792;-76